createdAt,value
2023-03-02T00:01:00.841Z,33.83
2023-03-02T00:03:21.950Z,30.37
2023-03-02T00:05:47.109Z,31.90
2023-03-02T00:08:09.043Z,31.00
2023-03-02T00:10:30.845Z,31.67
2023-03-02T00:12:52.437Z,30.63
2023-03-02T00:15:13.378Z,31.07
2023-03-02T00:17:34.629Z,31.60
2023-03-02T00:19:55.861Z,31.27
2023-03-02T00:22:19.130Z,30.77
2023-03-02T00:24:40.264Z,32.23
2023-03-02T00:27:01.588Z,32.37
2023-03-02T00:29:22.938Z,33.20
2023-03-02T00:31:44.403Z,31.20
2023-03-02T00:34:05.638Z,32.97
2023-03-02T00:36:27.245Z,31.87
2023-03-02T00:38:52.044Z,32.97
2023-03-02T00:41:13.370Z,28.53
2023-03-02T00:43:34.515Z,32.43
2023-03-02T00:45:55.789Z,32.40
2023-03-02T00:48:16.884Z,33.33
2023-03-02T00:50:41.033Z,30.90
2023-03-02T00:53:02.354Z,31.47
2023-03-02T00:55:24.885Z,31.33
2023-03-02T00:57:55.210Z,31.03
2023-03-02T01:00:16.472Z,31.13
2023-03-02T01:02:39.150Z,31.97
2023-03-02T01:05:00.658Z,30.97
2023-03-02T01:07:22.334Z,29.93
2023-03-02T01:09:44.212Z,29.37
2023-03-02T01:12:09.332Z,32.37
2023-03-02T01:14:30.798Z,27.33
2023-03-02T01:16:52.207Z,32.20
2023-03-02T01:19:13.640Z,31.00
2023-03-02T01:21:35.141Z,30.53
2023-03-02T01:23:56.256Z,31.97
2023-03-02T01:26:17.736Z,33.97
2023-03-02T01:28:40.300Z,32.97
2023-03-02T01:31:04.482Z,32.07
2023-03-02T01:33:25.937Z,32.57
2023-03-02T01:35:47.779Z,29.43
2023-03-02T01:38:09.065Z,33.47
2023-03-02T01:43:47.581Z,28.67
2023-03-02T01:46:11.664Z,32.93
2023-03-02T01:48:34.614Z,31.43
2023-03-02T01:50:56.140Z,32.27
2023-03-02T01:53:17.715Z,33.70
2023-03-02T01:55:39.910Z,32.13
2023-03-02T01:58:02.786Z,34.87
2023-03-02T02:00:27.161Z,31.97
2023-03-02T02:02:48.826Z,34.47
2023-03-02T02:05:10.895Z,31.40
2023-03-02T02:07:32.305Z,33.90
2023-03-02T02:09:54.354Z,32.00
2023-03-02T02:12:16.598Z,30.23
2023-03-02T02:14:37.675Z,31.17
2023-03-02T02:17:00.501Z,31.53
2023-03-02T02:19:34.983Z,37.93
2023-03-02T02:21:56.067Z,33.20
2023-03-02T02:24:22.105Z,29.97
2023-03-02T02:26:46.380Z,31.33
2023-03-02T02:29:12.275Z,29.73
2023-03-02T02:31:36.311Z,29.83
2023-03-02T02:33:58.697Z,34.90
2023-03-02T02:36:22.094Z,31.60
2023-03-02T02:38:43.972Z,32.17
2023-03-02T02:41:06.380Z,30.40
2023-03-02T02:43:29.844Z,32.33
2023-03-02T02:45:52.817Z,33.30
2023-03-02T02:48:16.318Z,33.27
2023-03-02T02:50:38.057Z,33.57
2023-03-02T02:53:00.869Z,32.90
2023-03-02T02:55:23.955Z,32.43
2023-03-02T02:57:45.134Z,36.63
2023-03-02T03:00:12.238Z,36.40
2023-03-02T03:02:35.954Z,34.97
2023-03-02T03:05:02.969Z,31.03
2023-03-02T03:07:25.498Z,30.93
2023-03-02T03:09:47.674Z,32.10
2023-03-02T03:12:12.042Z,31.13
2023-03-02T03:14:35.841Z,34.07
2023-03-02T03:16:58.496Z,33.77
2023-03-02T03:19:20.977Z,32.37
2023-03-02T03:21:41.874Z,30.33
2023-03-02T03:24:03.376Z,32.37
2023-03-02T03:26:24.458Z,33.67
2023-03-02T03:28:45.707Z,31.73
2023-03-02T03:31:07.034Z,35.33
2023-03-02T03:33:29.518Z,36.33
2023-03-02T03:35:50.883Z,31.67
2023-03-02T03:38:12.193Z,30.60
2023-03-02T03:40:34.791Z,34.27
2023-03-02T03:42:55.881Z,33.97
2023-03-02T03:45:17.177Z,31.60
2023-03-02T03:47:38.429Z,32.27
2023-03-02T03:50:01.107Z,30.57
2023-03-02T03:52:30.635Z,33.90
2023-03-02T03:54:52.018Z,33.00
2023-03-02T03:57:13.257Z,32.30
2023-03-02T03:59:36.040Z,32.37
2023-03-02T04:01:58.403Z,34.73
2023-03-02T04:04:20.845Z,32.57
2023-03-02T04:06:43.456Z,31.13
2023-03-02T04:09:05.687Z,34.33
2023-03-02T04:11:26.891Z,30.63
2023-03-02T04:13:48.870Z,32.83
2023-03-02T04:16:09.818Z,34.00
2023-03-02T04:18:30.966Z,34.77
2023-03-02T04:20:52.223Z,33.57
2023-03-02T04:23:14.787Z,34.37
2023-03-02T04:25:36.007Z,32.37
2023-03-02T04:27:57.245Z,35.47
2023-03-02T04:30:20.071Z,32.10
2023-03-02T04:32:41.354Z,31.83
2023-03-02T04:35:02.683Z,32.93
2023-03-02T04:37:23.935Z,32.97
2023-03-02T04:39:50.088Z,32.10
2023-03-02T04:42:11.504Z,34.30
2023-03-02T04:44:34.815Z,32.33
2023-03-02T04:46:56.145Z,36.97
2023-03-02T04:49:18.051Z,36.03
2023-03-02T04:51:40.567Z,32.63
2023-03-02T04:54:02.858Z,31.20
2023-03-02T04:56:25.441Z,30.70
2023-03-02T04:58:46.500Z,34.20
2023-03-02T05:01:07.754Z,35.37
2023-03-02T05:03:29.081Z,32.23
2023-03-02T05:05:50.190Z,32.67
2023-03-02T05:08:11.481Z,32.47
2023-03-02T05:10:32.834Z,29.73
2023-03-02T05:12:58.184Z,32.23
2023-03-02T05:15:19.306Z,31.67
2023-03-02T05:17:40.690Z,33.23
2023-03-02T05:20:02.066Z,32.37
2023-03-02T05:22:23.460Z,31.67
2023-03-02T05:24:44.805Z,32.63
2023-03-02T05:27:06.013Z,36.23
2023-03-02T05:29:28.750Z,33.80
2023-03-02T05:31:50.479Z,33.23
2023-03-02T05:34:13.414Z,30.63
2023-03-02T05:36:34.766Z,34.60
2023-03-02T05:38:56.216Z,31.07
2023-03-02T05:41:17.323Z,32.43
2023-03-02T05:43:38.542Z,35.57
2023-03-02T05:46:01.272Z,33.03
2023-03-02T05:48:22.493Z,32.67
2023-03-02T05:50:44.019Z,31.57
2023-03-02T05:53:05.395Z,32.77
2023-03-02T05:55:26.350Z,34.47
2023-03-02T05:57:49.271Z,30.63
2023-03-02T06:00:11.917Z,33.40
2023-03-02T06:02:34.203Z,33.67
2023-03-02T06:04:55.214Z,31.63
2023-03-02T06:07:16.392Z,33.43
2023-03-02T06:09:38.084Z,31.17
2023-03-02T06:11:59.400Z,34.40
2023-03-02T06:14:20.343Z,32.80
2023-03-02T06:16:41.797Z,34.10
2023-03-02T06:19:04.238Z,34.77
2023-03-02T06:21:25.207Z,34.47
2023-03-02T06:23:47.125Z,31.20
2023-03-02T06:26:09.289Z,31.07
2023-03-02T06:28:31.794Z,30.37
2023-03-02T06:30:54.035Z,29.30
2023-03-02T06:33:15.620Z,31.60
2023-03-02T06:35:38.303Z,29.40
2023-03-02T06:37:59.470Z,32.87
2023-03-02T06:40:21.657Z,34.57
2023-03-02T06:42:43.446Z,33.47
2023-03-02T06:45:04.544Z,30.60
2023-03-02T06:47:25.521Z,30.90
2023-03-02T06:49:46.876Z,32.80
2023-03-02T06:52:10.944Z,29.80
2023-03-02T06:54:32.207Z,28.83
2023-03-02T06:56:53.583Z,28.97
2023-03-02T06:59:14.984Z,31.03
2023-03-02T07:01:36.624Z,36.80
2023-03-02T07:03:58.154Z,34.30
2023-03-02T07:06:19.457Z,34.10
2023-03-02T07:08:42.185Z,32.97
2023-03-02T07:11:05.626Z,33.00
2023-03-02T07:13:26.876Z,32.13
2023-03-02T07:15:47.985Z,29.90
2023-03-02T07:18:09.202Z,32.97
2023-03-02T07:20:30.766Z,31.00
2023-03-02T07:22:51.781Z,29.93
2023-03-02T07:25:14.870Z,33.60
2023-03-02T07:27:36.477Z,31.83
2023-03-02T07:29:57.522Z,32.67
2023-03-02T07:32:19.020Z,32.30
2023-03-02T07:34:40.237Z,31.53
2023-03-02T07:37:01.504Z,31.10
2023-03-02T07:39:22.841Z,32.67
2023-03-02T07:41:45.194Z,31.00
2023-03-02T07:44:06.455Z,29.53
2023-03-02T07:46:27.716Z,28.43
2023-03-02T07:48:48.873Z,30.90
2023-03-02T07:51:10.274Z,31.50
2023-03-02T07:53:31.752Z,32.27
2023-03-02T07:55:52.755Z,28.87
2023-03-02T07:58:15.301Z,31.40
2023-03-02T08:00:37.291Z,29.57
2023-03-02T08:02:58.359Z,29.33
2023-03-02T08:05:19.705Z,29.07
2023-03-02T08:07:40.928Z,25.30
2023-03-02T08:10:02.229Z,28.07
2023-03-02T08:12:23.656Z,25.10
2023-03-02T08:14:48.240Z,31.23
2023-03-02T08:17:09.634Z,27.17
2023-03-02T08:19:30.962Z,27.23
2023-03-02T08:21:52.328Z,27.03
2023-03-02T08:24:13.526Z,24.87
2023-03-02T08:26:34.904Z,25.30
2023-03-02T08:28:56.220Z,25.83
2023-03-02T08:31:18.681Z,23.93
2023-03-02T08:33:40.121Z,25.40
2023-03-02T08:36:01.813Z,23.70
2023-03-02T08:38:22.763Z,29.40
2023-03-02T08:40:43.886Z,28.53
2023-03-02T08:43:07.188Z,25.13
2023-03-02T08:45:29.860Z,22.90
2023-03-02T08:47:53.649Z,27.50
2023-03-02T08:50:14.662Z,24.17
2023-03-02T08:52:35.799Z,25.53
2023-03-02T08:54:56.876Z,24.07
2023-03-02T08:57:19.713Z,29.83
2023-03-02T08:59:42.271Z,23.80
2023-03-02T09:02:03.533Z,23.40
2023-03-02T09:04:26.087Z,24.53
2023-03-02T09:06:47.387Z,28.77
2023-03-02T09:09:09.094Z,31.13
2023-03-02T09:11:30.435Z,29.67
2023-03-02T09:13:51.811Z,28.17
2023-03-02T09:16:14.338Z,27.50
2023-03-02T09:18:36.475Z,28.13
2023-03-02T09:20:59.184Z,30.27
2023-03-02T09:23:20.745Z,29.73
2023-03-02T09:25:41.661Z,28.80
2023-03-02T09:28:02.849Z,26.47
2023-03-02T09:30:24.014Z,28.37
2023-03-02T09:32:45.348Z,26.30
2023-03-02T09:35:06.603Z,28.23
2023-03-02T09:37:30.190Z,29.87
2023-03-02T09:39:51.264Z,25.37
2023-03-02T09:42:19.016Z,22.53
2023-03-02T09:44:51.159Z,24.33
2023-03-02T09:47:29.877Z,25.73
2023-03-02T09:49:59.179Z,24.30
2023-03-02T09:52:28.565Z,22.33
2023-03-02T09:54:51.121Z,26.00
2023-03-02T09:57:20.989Z,24.83
2023-03-02T09:59:44.580Z,24.37
2023-03-02T10:02:12.318Z,25.53
2023-03-02T10:04:38.715Z,25.33
2023-03-02T10:07:11.885Z,26.37
2023-03-02T10:09:33.113Z,23.10
2023-03-02T10:12:09.019Z,22.77
2023-03-02T10:14:34.262Z,24.47
2023-03-02T10:17:01.419Z,23.23
2023-03-02T10:19:26.508Z,27.77
2023-03-02T10:21:49.828Z,26.13
2023-03-02T10:24:18.805Z,25.93
2023-03-02T10:26:41.296Z,24.10
2023-03-02T10:29:07.614Z,24.57
2023-03-02T10:31:29.843Z,26.20
2023-03-02T10:33:51.268Z,28.37
2023-03-02T10:36:20.707Z,26.63
2023-03-02T10:38:41.938Z,27.00
2023-03-02T10:41:04.012Z,23.07
2023-03-02T10:43:28.617Z,25.20
2023-03-02T10:46:00.259Z,25.90
2023-03-02T10:48:21.412Z,27.37
2023-03-02T10:50:44.163Z,28.87
2023-03-02T10:53:07.677Z,23.33
2023-03-02T10:55:28.730Z,21.07
2023-03-02T10:58:01.038Z,23.17
2023-03-02T11:00:22.911Z,25.63
2023-03-02T11:02:52.773Z,23.57
2023-03-02T11:05:21.091Z,22.63
2023-03-02T11:07:52.630Z,23.20
2023-03-02T11:10:19.422Z,26.93
2023-03-02T11:12:46.120Z,26.40
2023-03-02T11:15:17.132Z,23.73
2023-03-02T11:17:38.721Z,25.27
2023-03-02T11:20:02.640Z,22.20
2023-03-02T11:22:28.608Z,21.57
2023-03-02T11:24:52.011Z,25.20
2023-03-02T11:27:15.320Z,22.70
2023-03-02T11:29:38.412Z,22.70
2023-03-02T11:32:02.491Z,26.20
2023-03-02T11:34:26.551Z,24.57
2023-03-02T11:36:58.749Z,26.03
2023-03-02T11:39:24.346Z,22.07
2023-03-02T11:41:45.507Z,24.37
2023-03-02T11:44:13.296Z,22.47
2023-03-02T11:46:34.547Z,23.40
2023-03-02T11:48:57.166Z,22.97
2023-03-02T11:51:19.367Z,23.90
2023-03-02T11:53:43.403Z,25.53
2023-03-02T11:56:04.753Z,26.20
2023-03-02T11:58:26.757Z,25.40
2023-03-02T12:00:49.002Z,24.53
2023-03-02T12:03:21.412Z,24.07
2023-03-02T12:05:43.557Z,24.10
2023-03-02T12:08:05.685Z,23.77
2023-03-02T12:10:32.423Z,27.53
2023-03-02T12:13:00.940Z,24.90
2023-03-02T12:15:30.391Z,25.33
2023-03-02T12:17:52.151Z,24.47
2023-03-02T12:20:26.282Z,24.07
2023-03-02T12:22:47.659Z,23.90
2023-03-02T12:25:25.757Z,25.00
2023-03-02T12:27:48.842Z,22.40
2023-03-02T12:30:12.106Z,23.60
2023-03-02T12:32:33.291Z,21.67
2023-03-02T12:34:56.035Z,29.43
2023-03-02T12:37:19.157Z,26.40
2023-03-02T12:39:52.852Z,23.13
2023-03-02T12:42:24.589Z,24.17
2023-03-02T12:44:52.333Z,25.73
2023-03-02T12:47:15.636Z,23.00
2023-03-02T12:49:45.530Z,24.80
2023-03-02T12:52:21.128Z,24.63
2023-03-02T12:54:43.187Z,26.03
2023-03-02T12:57:09.057Z,23.73
2023-03-02T12:59:30.727Z,24.83
2023-03-02T13:01:53.363Z,24.70
2023-03-02T13:04:21.450Z,27.83
2023-03-02T13:06:42.764Z,25.47
2023-03-02T13:09:04.034Z,27.47
2023-03-02T13:11:27.895Z,24.00
2023-03-02T13:13:49.892Z,22.10
2023-03-02T13:16:20.486Z,26.07
2023-03-02T13:18:43.324Z,29.77
2023-03-02T13:21:05.517Z,22.93
2023-03-02T13:23:27.633Z,27.80
2023-03-02T13:25:49.846Z,27.13
2023-03-02T13:28:25.288Z,28.40
2023-03-02T13:30:47.982Z,25.03
2023-03-02T13:33:19.211Z,25.77
2023-03-02T13:35:46.348Z,26.23
2023-03-02T13:38:14.784Z,34.93
2023-03-02T13:40:40.232Z,24.60
2023-03-02T13:43:01.150Z,24.77
2023-03-02T13:45:24.042Z,23.17
2023-03-02T13:47:45.234Z,26.87
2023-03-02T13:50:10.138Z,24.87
2023-03-02T13:52:32.529Z,24.07
2023-03-02T13:54:53.746Z,23.67
2023-03-02T13:57:16.961Z,22.60
2023-03-02T13:59:38.271Z,24.43
2023-03-02T14:01:59.581Z,25.53
2023-03-02T14:04:23.279Z,23.70
2023-03-02T14:06:45.030Z,24.83
2023-03-02T14:09:07.523Z,25.60
2023-03-02T14:11:31.866Z,28.33
2023-03-02T14:13:54.912Z,23.83
2023-03-02T14:16:16.544Z,25.07
2023-03-02T14:18:39.718Z,23.10
2023-03-02T14:21:01.328Z,26.37
2023-03-02T14:23:22.442Z,22.90
2023-03-02T14:25:45.040Z,26.33
2023-03-02T14:28:06.246Z,23.47
2023-03-02T14:30:27.573Z,24.97
2023-03-02T14:32:48.897Z,24.03
2023-03-02T14:35:11.591Z,23.73
2023-03-02T14:37:33.179Z,22.00
2023-03-02T14:39:55.613Z,20.37
2023-03-02T14:42:19.058Z,22.03
2023-03-02T14:44:40.155Z,23.57
2023-03-02T14:47:01.326Z,26.90
2023-03-02T14:49:22.439Z,22.07
2023-03-02T14:51:45.118Z,21.17
2023-03-02T14:54:07.653Z,25.70
2023-03-02T14:56:28.871Z,23.63
2023-03-02T14:58:51.688Z,24.87
2023-03-02T15:01:12.781Z,24.33
2023-03-02T15:03:33.788Z,23.43
2023-03-02T15:06:01.291Z,21.47
2023-03-02T15:08:24.123Z,22.23
2023-03-02T15:10:46.817Z,22.47
2023-03-02T15:13:07.767Z,26.10
2023-03-02T15:15:30.248Z,25.20
2023-03-02T15:17:51.506Z,21.13
2023-03-02T15:20:14.410Z,26.00
2023-03-02T15:22:35.776Z,25.30
2023-03-02T15:24:57.199Z,25.40
2023-03-02T15:27:19.628Z,23.47
2023-03-02T15:29:43.797Z,25.13
2023-03-02T15:32:07.568Z,26.13
2023-03-02T15:34:28.418Z,25.30
2023-03-02T15:36:49.567Z,22.50
2023-03-02T15:39:13.051Z,24.60
2023-03-02T15:41:34.794Z,23.60
2023-03-02T15:43:56.384Z,23.40
2023-03-02T15:46:17.635Z,24.20
2023-03-02T15:48:40.259Z,24.80
2023-03-02T15:51:02.607Z,24.70
2023-03-02T15:53:23.849Z,24.13
2023-03-02T15:55:45.703Z,23.83
2023-03-02T15:58:08.216Z,25.33
2023-03-02T16:00:29.333Z,27.83
2023-03-02T16:02:50.638Z,24.77
2023-03-02T16:05:13.789Z,23.77
2023-03-02T16:07:37.200Z,25.53
2023-03-02T16:09:58.106Z,23.57
2023-03-02T16:12:23.275Z,23.83
2023-03-02T16:14:44.590Z,23.70
2023-03-02T16:17:05.875Z,24.23
2023-03-02T16:19:27.654Z,25.83
2023-03-02T16:21:49.990Z,25.60
2023-03-02T16:24:13.111Z,27.57
2023-03-02T16:26:34.882Z,27.80
2023-03-02T16:28:55.905Z,28.90
2023-03-02T16:31:19.818Z,26.77
2023-03-02T16:33:41.657Z,28.23
2023-03-02T16:36:02.872Z,32.43
2023-03-02T16:38:25.599Z,27.53
2023-03-02T16:40:47.747Z,29.60
2023-03-02T16:43:10.731Z,31.40
2023-03-02T16:45:31.781Z,28.73
2023-03-02T16:47:52.921Z,27.00
2023-03-02T16:50:15.020Z,29.00
2023-03-02T16:52:35.951Z,31.20
2023-03-02T16:54:58.658Z,33.33
2023-03-02T16:57:19.872Z,34.60
2023-03-02T16:59:41.176Z,31.33
2023-03-02T17:02:02.676Z,36.23
2023-03-02T17:04:24.159Z,32.40
2023-03-02T17:06:59.903Z,31.57
2023-03-02T17:09:21.961Z,37.23
2023-03-02T17:11:44.705Z,35.77
2023-03-02T17:14:05.924Z,37.17
2023-03-02T17:16:27.316Z,37.93
2023-03-02T17:18:48.558Z,32.50
2023-03-02T17:21:09.824Z,31.33
2023-03-02T17:23:31.518Z,35.43
2023-03-02T17:25:52.587Z,32.30
2023-03-02T17:28:15.626Z,42.57
2023-03-02T17:30:36.782Z,37.83
2023-03-02T17:32:58.084Z,34.07
2023-03-02T17:35:19.261Z,36.00
2023-03-02T17:37:40.407Z,34.47
2023-03-02T17:40:01.250Z,37.13
2023-03-02T17:42:22.421Z,33.23
2023-03-02T17:44:45.102Z,32.63
2023-03-02T17:47:08.093Z,34.67
2023-03-02T17:49:29.267Z,35.30
2023-03-02T17:51:50.634Z,34.17
2023-03-02T17:54:11.803Z,35.00
2023-03-02T17:56:33.093Z,32.00
2023-03-02T17:58:55.354Z,34.77
2023-03-02T18:01:17.840Z,36.70
2023-03-02T18:03:39.040Z,34.43
2023-03-02T18:05:59.919Z,36.07
2023-03-02T18:08:21.118Z,37.17
2023-03-02T18:10:42.394Z,34.77
2023-03-02T18:13:03.535Z,37.90
2023-03-02T18:15:27.068Z,39.40
2023-03-02T18:17:49.685Z,33.20
2023-03-02T18:20:11.643Z,35.27
2023-03-02T18:22:32.670Z,36.67
2023-03-02T18:24:54.012Z,37.43
2023-03-02T18:27:15.389Z,36.60
2023-03-02T18:29:36.778Z,37.60
2023-03-02T18:31:58.201Z,37.23
2023-03-02T18:34:20.865Z,37.77
2023-03-02T18:36:41.897Z,40.93
2023-03-02T18:39:03.962Z,37.47
2023-03-02T18:41:25.198Z,39.37
2023-03-02T18:43:46.120Z,39.27
2023-03-02T18:46:09.473Z,39.30
2023-03-02T18:48:31.358Z,36.20
2023-03-02T18:50:53.760Z,34.57
2023-03-02T18:53:14.806Z,37.83
2023-03-02T18:55:37.127Z,37.63
2023-03-02T18:57:58.193Z,38.77
2023-03-02T19:00:22.147Z,41.30
2023-03-02T19:02:43.576Z,38.77
2023-03-02T19:05:05.142Z,38.30
2023-03-02T19:07:27.443Z,42.33
2023-03-02T19:09:49.158Z,42.40
2023-03-02T19:12:10.407Z,40.23
2023-03-02T19:14:31.659Z,38.30
2023-03-02T19:16:53.122Z,41.67
2023-03-02T19:19:14.501Z,39.17
2023-03-02T19:21:36.053Z,39.47
2023-03-02T19:23:59.306Z,40.77
2023-03-02T19:26:20.360Z,42.43
2023-03-02T19:28:41.734Z,43.40
2023-03-02T19:31:03.909Z,44.87
2023-03-02T19:33:26.910Z,42.70
2023-03-02T19:35:48.198Z,44.33
2023-03-02T19:38:09.961Z,43.73
2023-03-02T19:40:32.647Z,44.97
2023-03-02T19:42:53.875Z,42.50
2023-03-02T19:45:15.962Z,42.60
2023-03-02T19:47:36.908Z,42.83
2023-03-02T19:49:58.141Z,43.47
2023-03-02T19:52:19.279Z,47.03
2023-03-02T19:54:40.454Z,42.27
2023-03-02T19:57:03.627Z,48.77
2023-03-02T19:59:25.441Z,44.93
2023-03-02T20:01:47.768Z,49.00
2023-03-02T20:04:09.508Z,46.00
2023-03-02T20:06:31.446Z,49.97
2023-03-02T20:08:52.824Z,51.43
2023-03-02T20:11:14.057Z,46.40
2023-03-02T20:13:36.920Z,46.40
2023-03-02T20:15:58.893Z,44.73
2023-03-02T20:18:20.658Z,49.40
2023-03-02T20:20:42.225Z,48.30
2023-03-02T20:23:04.715Z,51.43
2023-03-02T20:25:25.967Z,50.17
2023-03-02T20:27:49.007Z,47.53
2023-03-02T20:30:14.578Z,51.47
2023-03-02T20:32:35.823Z,51.90
2023-03-02T20:34:57.055Z,55.93
2023-03-02T20:37:18.322Z,55.20
2023-03-02T20:39:39.848Z,53.07
2023-03-02T20:42:01.079Z,49.33
2023-03-02T20:44:23.234Z,51.97
2023-03-02T20:46:47.291Z,72.93
2023-03-02T20:49:09.519Z,50.50
2023-03-02T20:51:30.849Z,54.33
2023-03-02T20:53:53.141Z,48.77
2023-03-02T20:56:15.165Z,49.00
2023-03-02T20:58:41.521Z,56.50
2023-03-02T21:01:02.551Z,54.97
2023-03-02T21:03:25.257Z,52.97
2023-03-02T21:05:47.121Z,52.20
2023-03-02T21:08:09.000Z,55.87
2023-03-02T21:10:31.174Z,76.67
2023-03-02T21:12:52.241Z,80.40
2023-03-02T21:15:13.697Z,55.67
2023-03-02T21:17:35.928Z,53.57
2023-03-02T21:19:58.798Z,60.63
2023-03-02T21:22:20.601Z,57.97
2023-03-02T21:24:41.530Z,84.03
2023-03-02T21:27:03.197Z,57.43
2023-03-02T21:29:25.119Z,53.10
2023-03-02T21:31:47.731Z,56.87
2023-03-02T21:34:08.771Z,52.43
2023-03-02T21:36:31.650Z,51.63
2023-03-02T21:38:53.609Z,52.40
2023-03-02T21:41:14.976Z,60.53
2023-03-02T21:43:36.465Z,52.27
2023-03-02T21:45:58.458Z,50.30
2023-03-02T21:48:22.818Z,50.40
2023-03-02T21:50:44.141Z,50.47
2023-03-02T21:53:06.371Z,50.87
2023-03-02T21:55:28.276Z,53.57
2023-03-02T21:57:49.243Z,52.63
2023-03-02T22:00:11.753Z,55.27
2023-03-02T22:02:33.083Z,54.27
2023-03-02T22:04:54.193Z,52.13
2023-03-02T22:07:15.561Z,57.50
2023-03-02T22:09:38.357Z,53.87
2023-03-02T22:11:59.318Z,51.13
2023-03-02T22:14:20.846Z,56.60
2023-03-02T22:16:42.629Z,53.67
2023-03-02T22:19:07.633Z,52.97
2023-03-02T22:21:30.085Z,54.40
2023-03-02T22:23:51.324Z,50.87
2023-03-02T22:26:15.686Z,55.30
2023-03-02T22:28:40.945Z,53.43
2023-03-02T22:31:02.393Z,55.20
2023-03-02T22:33:24.543Z,53.30
2023-03-02T22:35:45.524Z,54.83
2023-03-02T22:38:08.634Z,54.07
2023-03-02T22:40:30.862Z,53.07
2023-03-02T22:42:56.507Z,53.07
2023-03-02T22:45:19.584Z,55.97
2023-03-02T22:47:40.764Z,53.83
2023-03-02T22:50:12.224Z,54.47
2023-03-02T22:52:37.200Z,57.93
2023-03-02T22:54:58.569Z,52.13
2023-03-02T22:57:28.016Z,54.73
2023-03-02T22:59:50.661Z,52.43
2023-03-02T23:02:16.293Z,52.83
2023-03-02T23:04:37.985Z,52.30
2023-03-02T23:07:00.992Z,47.00
2023-03-02T23:09:23.410Z,51.47
2023-03-02T23:11:45.046Z,53.53
2023-03-02T23:14:11.745Z,51.23
2023-03-02T23:16:35.716Z,51.87
2023-03-02T23:18:59.252Z,51.00
2023-03-02T23:21:21.680Z,50.23
2023-03-02T23:23:43.015Z,52.10
2023-03-02T23:26:04.278Z,50.83
2023-03-02T23:28:25.586Z,53.10
2023-03-02T23:30:47.649Z,52.97
2023-03-02T23:33:10.353Z,52.23
2023-03-02T23:35:31.530Z,50.63
2023-03-02T23:37:52.894Z,47.53
2023-03-02T23:40:14.681Z,49.13
2023-03-02T23:42:36.179Z,54.87
2023-03-02T23:44:57.662Z,49.67
2023-03-02T23:47:19.010Z,50.90
2023-03-02T23:49:41.492Z,50.63
2023-03-02T23:52:03.614Z,45.57
2023-03-02T23:54:24.531Z,45.00
2023-03-02T23:56:45.729Z,48.80
2023-03-02T23:59:06.920Z,47.53
